sensor_id;sensor_type;location;lat;lon;timestamp;pressure;altitude;pressure_sealevel;temperature;humidity
16544;BME280;8384;47.996;7.786;2024-02-21T00:00:18;99848.78;;;4.65;100.00
16544;BME280;8384;47.996;7.786;2024-02-21T00:02:44;99831.00;;;4.56;100.00
16544;BME280;8384;47.996;7.786;2024-02-21T00:05:10;99860.97;;;4.76;100.00
16544;BME280;8384;47.996;7.786;2024-02-21T00:07:35;99833.13;;;4.60;100.00
16544;BME280;8384;47.996;7.786;2024-02-21T00:10:00;99806.72;;;4.41;100.00
16544;BME280;8384;47.996;7.786;2024-02-21T00:12:25;99856.16;;;4.78;100.00
16544;BME280;8384;47.996;7.786;2024-02-21T00:14:51;99856.59;;;4.75;100.00
16544;BME280;8384;47.996;7.786;2024-02-21T00:17:16;99857.69;;;4.59;100.00
16544;BME280;8384;47.996;7.786;2024-02-21T00:19:41;99851.38;;;4.52;100.00
16544;BME280;8384;47.996;7.786;2024-02-21T00:22:07;99865.28;;;4.70;100.00
16544;BME280;8384;47.996;7.786;2024-02-21T00:24:33;99858.78;;;4.64;100.00
16544;BME280;8384;47.996;7.786;2024-02-21T00:26:58;99856.28;;;4.41;100.00
16544;BME280;8384;47.996;7.786;2024-02-21T00:29:23;99838.13;;;4.35;100.00
16544;BME280;8384;47.996;7.786;2024-02-21T00:31:49;99811.44;;;4.32;100.00
16544;BME280;8384;47.996;7.786;2024-02-21T00:34:15;99850.41;;;4.59;100.00
16544;BME280;8384;47.996;7.786;2024-02-21T00:36:40;99843.78;;;4.62;100.00
16544;BME280;8384;47.996;7.786;2024-02-21T00:39:05;99835.97;;;4.74;100.00
16544;BME280;8384;47.996;7.786;2024-02-21T00:41:31;99843.47;;;4.78;100.00
16544;BME280;8384;47.996;7.786;2024-02-21T00:43:57;99804.09;;;4.54;100.00
16544;BME280;8384;47.996;7.786;2024-02-21T00:46:22;99844.66;;;4.69;100.00
16544;BME280;8384;47.996;7.786;2024-02-21T00:48:48;99851.22;;;4.82;100.00
16544;BME280;8384;47.996;7.786;2024-02-21T00:51:13;99848.47;;;4.75;100.00
16544;BME280;8384;47.996;7.786;2024-02-21T00:53:38;99848.91;;;4.78;100.00
16544;BME280;8384;47.996;7.786;2024-02-21T00:56:05;99817.09;;;4.59;100.00
16544;BME280;8384;47.996;7.786;2024-02-21T00:58:30;99823.88;;;4.76;100.00
16544;BME280;8384;47.996;7.786;2024-02-21T01:00:56;99824.81;;;4.90;100.00
16544;BME280;8384;47.996;7.786;2024-02-21T01:03:21;99802.72;;;4.87;100.00
16544;BME280;8384;47.996;7.786;2024-02-21T01:05:46;99820.34;;;5.11;100.00
16544;BME280;8384;47.996;7.786;2024-02-21T01:08:11;99802.53;;;4.95;100.00
16544;BME280;8384;47.996;7.786;2024-02-21T01:10:37;99812.81;;;5.00;100.00
16544;BME280;8384;47.996;7.786;2024-02-21T01:13:02;99814.75;;;4.84;100.00
16544;BME280;8384;47.996;7.786;2024-02-21T01:15:27;99813.84;;;4.99;100.00
16544;BME280;8384;47.996;7.786;2024-02-21T01:17:53;99810.09;;;5.00;100.00
16544;BME280;8384;47.996;7.786;2024-02-21T01:20:20;99789.47;;;5.05;100.00
16544;BME280;8384;47.996;7.786;2024-02-21T01:22:45;99783.28;;;5.12;100.00
16544;BME280;8384;47.996;7.786;2024-02-21T01:25:11;99787.88;;;5.18;100.00
16544;BME280;8384;47.996;7.786;2024-02-21T01:27:36;99780.97;;;5.08;100.00
16544;BME280;8384;47.996;7.786;2024-02-21T01:30:01;99780.84;;;4.95;100.00
16544;BME280;8384;47.996;7.786;2024-02-21T01:32:27;99776.75;;;5.06;100.00
16544;BME280;8384;47.996;7.786;2024-02-21T01:34:52;99767.38;;;5.02;100.00
16544;BME280;8384;47.996;7.786;2024-02-21T01:37:17;99763.03;;;5.07;100.00
16544;BME280;8384;47.996;7.786;2024-02-21T01:39:42;99742.16;;;5.08;100.00
16544;BME280;8384;47.996;7.786;2024-02-21T01:42:08;99743.50;;;5.25;100.00
16544;BME280;8384;47.996;7.786;2024-02-21T01:44:34;99736.22;;;5.26;100.00
16544;BME280;8384;47.996;7.786;2024-02-21T01:46:59;99699.81;;;5.00;100.00
16544;BME280;8384;47.996;7.786;2024-02-21T01:49:24;99730.53;;;5.14;100.00
16544;BME280;8384;47.996;7.786;2024-02-21T01:51:50;99722.38;;;5.07;100.00
16544;BME280;8384;47.996;7.786;2024-02-21T01:54:17;99711.91;;;4.98;100.00
16544;BME280;8384;47.996;7.786;2024-02-21T01:56:44;99729.25;;;5.10;100.00
16544;BME280;8384;47.996;7.786;2024-02-21T01:59:10;99714.09;;;5.16;100.00
16544;BME280;8384;47.996;7.786;2024-02-21T02:01:36;99709.47;;;5.16;100.00
16544;BME280;8384;47.996;7.786;2024-02-21T02:04:02;99704.28;;;5.15;100.00
16544;BME280;8384;47.996;7.786;2024-02-21T02:06:27;99702.41;;;5.22;100.00
16544;BME280;8384;47.996;7.786;2024-02-21T02:08:53;99699.94;;;5.27;100.00
16544;BME280;8384;47.996;7.786;2024-02-21T02:11:19;99658.94;;;4.95;100.00
16544;BME280;8384;47.996;7.786;2024-02-21T02:13:45;99678.25;;;5.27;100.00
16544;BME280;8384;47.996;7.786;2024-02-21T02:16:10;99679.66;;;5.09;100.00
16544;BME280;8384;47.996;7.786;2024-02-21T02:18:35;99689.44;;;5.10;100.00
16544;BME280;8384;47.996;7.786;2024-02-21T02:21:01;99690.28;;;5.11;100.00
16544;BME280;8384;47.996;7.786;2024-02-21T02:23:30;99674.53;;;4.86;100.00
16544;BME280;8384;47.996;7.786;2024-02-21T02:25:57;99701.06;;;4.98;100.00
16544;BME280;8384;47.996;7.786;2024-02-21T02:28:22;99699.41;;;4.97;100.00
16544;BME280;8384;47.996;7.786;2024-02-21T02:30:48;99696.88;;;4.95;100.00
16544;BME280;8384;47.996;7.786;2024-02-21T02:33:13;99687.25;;;4.86;100.00
16544;BME280;8384;47.996;7.786;2024-02-21T02:35:39;99683.03;;;4.76;100.00
16544;BME280;8384;47.996;7.786;2024-02-21T02:38:05;99674.09;;;4.76;100.00
16544;BME280;8384;47.996;7.786;2024-02-21T02:40:34;99679.28;;;4.77;100.00
16544;BME280;8384;47.996;7.786;2024-02-21T02:42:59;99672.16;;;4.70;100.00
16544;BME280;8384;47.996;7.786;2024-02-21T02:45:25;99647.19;;;4.74;100.00
16544;BME280;8384;47.996;7.786;2024-02-21T02:47:52;99648.47;;;4.85;100.00
16544;BME280;8384;47.996;7.786;2024-02-21T02:50:19;99647.66;;;4.85;100.00
16544;BME280;8384;47.996;7.786;2024-02-21T02:52:45;99657.78;;;4.69;100.00
16544;BME280;8384;47.996;7.786;2024-02-21T02:55:10;99660.38;;;4.49;100.00
16544;BME280;8384;47.996;7.786;2024-02-21T02:57:35;99656.03;;;4.55;100.00
16544;BME280;8384;47.996;7.786;2024-02-21T03:00:00;99645.59;;;4.52;100.00
16544;BME280;8384;47.996;7.786;2024-02-21T03:02:26;99642.88;;;4.87;100.00
16544;BME280;8384;47.996;7.786;2024-02-21T03:04:51;99647.75;;;4.63;100.00
16544;BME280;8384;47.996;7.786;2024-02-21T03:07:16;99641.06;;;4.59;100.00
16544;BME280;8384;47.996;7.786;2024-02-21T03:09:42;99612.00;;;4.39;100.00
16544;BME280;8384;47.996;7.786;2024-02-21T03:12:08;99626.00;;;4.49;100.00
16544;BME280;8384;47.996;7.786;2024-02-21T03:14:33;99614.03;;;4.65;100.00
16544;BME280;8384;47.996;7.786;2024-02-21T03:16:59;99602.75;;;4.62;100.00
16544;BME280;8384;47.996;7.786;2024-02-21T03:19:24;99608.19;;;4.62;100.00
16544;BME280;8384;47.996;7.786;2024-02-21T03:21:50;99604.16;;;4.51;100.00
16544;BME280;8384;47.996;7.786;2024-02-21T03:24:16;99612.31;;;4.23;100.00
16544;BME280;8384;47.996;7.786;2024-02-21T03:26:42;99590.25;;;3.90;100.00
16544;BME280;8384;47.996;7.786;2024-02-21T03:29:07;99601.09;;;4.26;100.00
16544;BME280;8384;47.996;7.786;2024-02-21T03:31:34;99598.16;;;4.20;100.00
16544;BME280;8384;47.996;7.786;2024-02-21T03:33:59;99607.34;;;4.26;100.00
16544;BME280;8384;47.996;7.786;2024-02-21T03:36:24;99580.91;;;4.28;100.00
16544;BME280;8384;47.996;7.786;2024-02-21T03:38:49;99596.31;;;4.63;100.00
16544;BME280;8384;47.996;7.786;2024-02-21T03:41:15;99566.97;;;4.31;100.00
16544;BME280;8384;47.996;7.786;2024-02-21T03:43:40;99585.25;;;4.23;100.00
16544;BME280;8384;47.996;7.786;2024-02-21T03:46:06;99589.97;;;4.07;100.00
16544;BME280;8384;47.996;7.786;2024-02-21T03:48:31;99587.72;;;4.17;100.00
16544;BME280;8384;47.996;7.786;2024-02-21T03:50:57;99592.22;;;4.39;100.00
16544;BME280;8384;47.996;7.786;2024-02-21T03:53:22;99589.16;;;4.55;100.00
16544;BME280;8384;47.996;7.786;2024-02-21T03:55:48;99557.69;;;4.47;100.00
16544;BME280;8384;47.996;7.786;2024-02-21T03:58:13;99569.81;;;4.58;100.00
16544;BME280;8384;47.996;7.786;2024-02-21T04:00:38;99568.78;;;4.59;100.00
16544;BME280;8384;47.996;7.786;2024-02-21T04:03:04;99576.72;;;4.61;100.00
16544;BME280;8384;47.996;7.786;2024-02-21T04:05:29;99553.69;;;4.37;100.00
16544;BME280;8384;47.996;7.786;2024-02-21T04:07:55;99575.84;;;4.54;100.00
16544;BME280;8384;47.996;7.786;2024-02-21T04:10:20;99555.16;;;4.39;100.00
16544;BME280;8384;47.996;7.786;2024-02-21T04:12:45;99564.41;;;4.58;100.00
16544;BME280;8384;47.996;7.786;2024-02-21T04:15:11;99553.00;;;4.63;100.00
16544;BME280;8384;47.996;7.786;2024-02-21T04:17:36;99552.13;;;4.62;100.00
16544;BME280;8384;47.996;7.786;2024-02-21T04:20:03;99547.13;;;4.59;100.00
16544;BME280;8384;47.996;7.786;2024-02-21T04:22:33;99534.59;;;4.52;100.00
16544;BME280;8384;47.996;7.786;2024-02-21T04:25:00;99535.88;;;4.56;100.00
16544;BME280;8384;47.996;7.786;2024-02-21T04:27:26;99528.78;;;4.55;100.00
16544;BME280;8384;47.996;7.786;2024-02-21T04:29:52;99507.91;;;4.42;100.00
16544;BME280;8384;47.996;7.786;2024-02-21T04:32:17;99536.91;;;4.55;100.00
16544;BME280;8384;47.996;7.786;2024-02-21T04:34:43;99546.88;;;4.54;100.00
16544;BME280;8384;47.996;7.786;2024-02-21T04:37:08;99548.13;;;4.52;100.00
16544;BME280;8384;47.996;7.786;2024-02-21T04:39:33;99553.72;;;4.43;100.00
16544;BME280;8384;47.996;7.786;2024-02-21T04:41:58;99543.69;;;4.37;100.00
16544;BME280;8384;47.996;7.786;2024-02-21T04:44:24;99556.19;;;4.38;100.00
16544;BME280;8384;47.996;7.786;2024-02-21T04:46:49;99534.91;;;4.28;100.00
16544;BME280;8384;47.996;7.786;2024-02-21T04:49:14;99546.38;;;4.37;100.00
16544;BME280;8384;47.996;7.786;2024-02-21T04:51:40;99545.19;;;4.40;100.00
16544;BME280;8384;47.996;7.786;2024-02-21T04:54:06;99511.50;;;4.07;100.00
16544;BME280;8384;47.996;7.786;2024-02-21T04:56:31;99526.38;;;4.25;100.00
16544;BME280;8384;47.996;7.786;2024-02-21T04:58:57;99511.94;;;4.11;100.00
16544;BME280;8384;47.996;7.786;2024-02-21T05:01:22;99509.84;;;4.13;100.00
16544;BME280;8384;47.996;7.786;2024-02-21T05:03:47;99501.13;;;4.17;100.00
16544;BME280;8384;47.996;7.786;2024-02-21T05:06:12;99498.03;;;4.20;100.00
16544;BME280;8384;47.996;7.786;2024-02-21T05:08:38;99476.41;;;3.85;100.00
16544;BME280;8384;47.996;7.786;2024-02-21T05:11:03;99500.50;;;4.15;100.00
16544;BME280;8384;47.996;7.786;2024-02-21T05:13:28;99499.19;;;4.04;100.00
16544;BME280;8384;47.996;7.786;2024-02-21T05:15:53;99477.63;;;3.76;100.00
16544;BME280;8384;47.996;7.786;2024-02-21T05:18:19;99501.88;;;3.98;100.00
16544;BME280;8384;47.996;7.786;2024-02-21T05:20:45;99501.88;;;3.98;100.00
16544;BME280;8384;47.996;7.786;2024-02-21T05:23:11;99414.53;;;3.34;100.00
16544;BME280;8384;47.996;7.786;2024-02-21T05:25:36;99458.41;;;3.64;100.00
16544;BME280;8384;47.996;7.786;2024-02-21T05:28:01;99471.16;;;3.70;100.00
16544;BME280;8384;47.996;7.786;2024-02-21T05:30:28;99505.69;;;3.75;100.00
16544;BME280;8384;47.996;7.786;2024-02-21T05:32:53;99501.31;;;3.74;100.00
16544;BME280;8384;47.996;7.786;2024-02-21T05:35:18;99482.78;;;3.71;100.00
16544;BME280;8384;47.996;7.786;2024-02-21T05:37:44;99462.78;;;3.65;100.00
16544;BME280;8384;47.996;7.786;2024-02-21T05:40:12;99437.72;;;3.50;100.00
16544;BME280;8384;47.996;7.786;2024-02-21T05:42:38;99476.84;;;3.89;100.00
16544;BME280;8384;47.996;7.786;2024-02-21T05:45:03;99468.72;;;3.82;100.00
16544;BME280;8384;47.996;7.786;2024-02-21T05:47:29;99442.25;;;3.78;100.00
16544;BME280;8384;47.996;7.786;2024-02-21T05:49:54;99478.50;;;3.83;100.00
16544;BME280;8384;47.996;7.786;2024-02-21T05:52:19;99479.16;;;3.92;100.00
16544;BME280;8384;47.996;7.786;2024-02-21T05:54:45;99479.19;;;3.99;100.00
16544;BME280;8384;47.996;7.786;2024-02-21T05:57:10;99480.63;;;3.95;100.00
16544;BME280;8384;47.996;7.786;2024-02-21T05:59:38;99466.91;;;3.96;100.00
16544;BME280;8384;47.996;7.786;2024-02-21T06:02:05;99400.72;;;3.50;100.00
16544;BME280;8384;47.996;7.786;2024-02-21T06:04:30;99475.25;;;4.01;100.00
16544;BME280;8384;47.996;7.786;2024-02-21T06:06:55;99480.88;;;4.00;100.00
16544;BME280;8384;47.996;7.786;2024-02-21T06:09:20;99483.34;;;3.95;100.00
16544;BME280;8384;47.996;7.786;2024-02-21T06:11:46;99437.59;;;3.65;100.00
16544;BME280;8384;47.996;7.786;2024-02-21T06:14:12;99483.72;;;3.92;100.00
16544;BME280;8384;47.996;7.786;2024-02-21T06:16:37;99447.41;;;3.72;100.00
16544;BME280;8384;47.996;7.786;2024-02-21T06:19:02;99473.66;;;3.79;100.00
16544;BME280;8384;47.996;7.786;2024-02-21T06:21:31;99445.34;;;3.74;100.00
16544;BME280;8384;47.996;7.786;2024-02-21T06:23:56;99469.38;;;3.91;100.00
16544;BME280;8384;47.996;7.786;2024-02-21T06:26:21;99459.13;;;3.86;100.00
16544;BME280;8384;47.996;7.786;2024-02-21T06:28:47;99452.25;;;3.77;100.00
16544;BME280;8384;47.996;7.786;2024-02-21T06:31:12;99460.09;;;3.65;100.00
16544;BME280;8384;47.996;7.786;2024-02-21T06:33:37;99469.66;;;3.68;100.00
16544;BME280;8384;47.996;7.786;2024-02-21T06:36:02;99460.31;;;3.70;100.00
16544;BME280;8384;47.996;7.786;2024-02-21T06:38:28;99450.56;;;3.76;100.00
16544;BME280;8384;47.996;7.786;2024-02-21T06:40:53;99453.31;;;3.83;100.00
16544;BME280;8384;47.996;7.786;2024-02-21T06:43:20;99460.00;;;3.87;100.00
16544;BME280;8384;47.996;7.786;2024-02-21T06:45:45;99456.66;;;3.85;100.00
16544;BME280;8384;47.996;7.786;2024-02-21T06:48:16;99410.78;;;3.63;100.00
16544;BME280;8384;47.996;7.786;2024-02-21T06:50:41;99430.91;;;3.60;100.00
16544;BME280;8384;47.996;7.786;2024-02-21T06:53:07;99447.63;;;3.71;100.00
16544;BME280;8384;47.996;7.786;2024-02-21T06:55:32;99450.53;;;3.69;100.00
16544;BME280;8384;47.996;7.786;2024-02-21T06:57:57;99425.72;;;3.59;100.00
16544;BME280;8384;47.996;7.786;2024-02-21T07:00:22;99430.13;;;3.67;100.00
16544;BME280;8384;47.996;7.786;2024-02-21T07:02:48;99444.53;;;3.74;100.00
16544;BME280;8384;47.996;7.786;2024-02-21T07:05:13;99430.63;;;3.77;100.00
16544;BME280;8384;47.996;7.786;2024-02-21T07:07:38;99409.38;;;3.74;100.00
16544;BME280;8384;47.996;7.786;2024-02-21T07:10:05;99433.56;;;3.82;100.00
16544;BME280;8384;47.996;7.786;2024-02-21T07:12:43;99432.34;;;3.98;100.00
16544;BME280;8384;47.996;7.786;2024-02-21T07:15:08;99429.97;;;4.17;100.00
16544;BME280;8384;47.996;7.786;2024-02-21T07:17:34;99430.38;;;4.27;100.00
16544;BME280;8384;47.996;7.786;2024-02-21T07:19:59;99426.88;;;4.33;100.00
16544;BME280;8384;47.996;7.786;2024-02-21T07:22:25;99424.19;;;4.40;100.00
16544;BME280;8384;47.996;7.786;2024-02-21T07:24:50;99425.03;;;4.47;99.71
16544;BME280;8384;47.996;7.786;2024-02-21T07:27:16;99425.69;;;4.56;99.31
16544;BME280;8384;47.996;7.786;2024-02-21T07:29:41;99433.84;;;4.63;98.68
16544;BME280;8384;47.996;7.786;2024-02-21T07:32:07;99430.28;;;4.62;99.40
16544;BME280;8384;47.996;7.786;2024-02-21T07:34:32;99411.97;;;4.64;99.21
16544;BME280;8384;47.996;7.786;2024-02-21T07:36:58;99423.44;;;4.80;97.87
16544;BME280;8384;47.996;7.786;2024-02-21T07:39:23;99421.16;;;4.84;96.82
16544;BME280;8384;47.996;7.786;2024-02-21T07:41:48;99418.41;;;4.57;98.35
16544;BME280;8384;47.996;7.786;2024-02-21T07:44:15;99423.38;;;4.46;100.00
16544;BME280;8384;47.996;7.786;2024-02-21T07:46:40;99413.16;;;4.35;100.00
16544;BME280;8384;47.996;7.786;2024-02-21T07:49:05;99385.06;;;4.36;100.00
16544;BME280;8384;47.996;7.786;2024-02-21T07:51:30;99417.81;;;4.75;100.00
16544;BME280;8384;47.996;7.786;2024-02-21T07:53:56;99419.91;;;4.79;100.00
16544;BME280;8384;47.996;7.786;2024-02-21T07:56:21;99381.75;;;4.74;99.09
16544;BME280;8384;47.996;7.786;2024-02-21T07:58:46;99419.25;;;5.18;97.66
16544;BME280;8384;47.996;7.786;2024-02-21T08:01:18;99392.16;;;5.18;95.69
16544;BME280;8384;47.996;7.786;2024-02-21T08:03:44;99417.16;;;5.47;93.93
16544;BME280;8384;47.996;7.786;2024-02-21T08:06:12;99395.69;;;5.45;91.62
16544;BME280;8384;47.996;7.786;2024-02-21T08:08:37;99418.38;;;5.58;91.33
16544;BME280;8384;47.996;7.786;2024-02-21T08:11:02;99400.88;;;5.53;91.63
16544;BME280;8384;47.996;7.786;2024-02-21T08:13:27;99407.09;;;5.61;91.73
16544;BME280;8384;47.996;7.786;2024-02-21T08:15:53;99421.47;;;5.81;92.61
16544;BME280;8384;47.996;7.786;2024-02-21T08:18:19;99411.22;;;5.83;93.37
16544;BME280;8384;47.996;7.786;2024-02-21T08:20:44;99383.97;;;5.58;97.65
16544;BME280;8384;47.996;7.786;2024-02-21T08:23:09;99409.72;;;6.08;93.28
16544;BME280;8384;47.996;7.786;2024-02-21T08:25:34;99378.53;;;6.24;86.96
16544;BME280;8384;47.996;7.786;2024-02-21T08:28:00;99403.66;;;6.44;84.21
16544;BME280;8384;47.996;7.786;2024-02-21T08:30:25;99416.91;;;6.66;82.88
16544;BME280;8384;47.996;7.786;2024-02-21T08:32:51;99384.97;;;6.62;81.97
16544;BME280;8384;47.996;7.786;2024-02-21T08:35:16;99376.13;;;6.73;79.45
16544;BME280;8384;47.996;7.786;2024-02-21T08:37:43;99408.72;;;6.98;80.48
16544;BME280;8384;47.996;7.786;2024-02-21T08:40:09;99384.16;;;6.86;80.45
16544;BME280;8384;47.996;7.786;2024-02-21T08:42:35;99392.59;;;7.03;81.08
16544;BME280;8384;47.996;7.786;2024-02-21T08:45:02;99400.69;;;7.10;79.46
16544;BME280;8384;47.996;7.786;2024-02-21T08:47:27;99398.78;;;7.36;77.37
16544;BME280;8384;47.996;7.786;2024-02-21T08:49:52;99373.41;;;7.42;75.72
16544;BME280;8384;47.996;7.786;2024-02-21T08:52:18;99389.38;;;7.57;74.71
16544;BME280;8384;47.996;7.786;2024-02-21T08:54:43;99380.91;;;7.65;75.05
16544;BME280;8384;47.996;7.786;2024-02-21T08:57:09;99353.56;;;7.60;74.85
16544;BME280;8384;47.996;7.786;2024-02-21T08:59:34;99375.22;;;7.86;74.03
16544;BME280;8384;47.996;7.786;2024-02-21T09:02:00;99374.84;;;8.01;73.89
16544;BME280;8384;47.996;7.786;2024-02-21T09:04:25;99372.72;;;8.03;73.17
16544;BME280;8384;47.996;7.786;2024-02-21T09:06:50;99358.84;;;8.23;72.23
16544;BME280;8384;47.996;7.786;2024-02-21T09:09:17;99363.03;;;8.37;71.88
16544;BME280;8384;47.996;7.786;2024-02-21T09:11:42;99352.97;;;8.38;70.31
16544;BME280;8384;47.996;7.786;2024-02-21T09:14:08;99356.84;;;8.61;70.55
16544;BME280;8384;47.996;7.786;2024-02-21T09:16:33;99355.31;;;8.53;69.11
16544;BME280;8384;47.996;7.786;2024-02-21T09:18:59;99339.78;;;8.23;69.27
16544;BME280;8384;47.996;7.786;2024-02-21T09:21:24;99357.69;;;7.81;71.72
16544;BME280;8384;47.996;7.786;2024-02-21T09:23:49;99343.41;;;8.17;72.08
16544;BME280;8384;47.996;7.786;2024-02-21T09:26:15;99344.06;;;8.00;72.18
16544;BME280;8384;47.996;7.786;2024-02-21T09:28:42;99354.09;;;8.49;71.26
16544;BME280;8384;47.996;7.786;2024-02-21T09:31:08;99328.44;;;8.26;69.44
16544;BME280;8384;47.996;7.786;2024-02-21T09:33:33;99343.81;;;8.51;68.86
16544;BME280;8384;47.996;7.786;2024-02-21T09:35:59;99360.53;;;8.66;68.26
16544;BME280;8384;47.996;7.786;2024-02-21T09:38:25;99354.78;;;8.98;65.84
16544;BME280;8384;47.996;7.786;2024-02-21T09:40:59;99356.56;;;9.05;65.05
16544;BME280;8384;47.996;7.786;2024-02-21T09:43:28;99352.06;;;9.10;65.95
16544;BME280;8384;47.996;7.786;2024-02-21T09:45:55;99353.47;;;9.01;66.25
16544;BME280;8384;47.996;7.786;2024-02-21T09:48:30;99344.34;;;9.19;64.78
16544;BME280;8384;47.996;7.786;2024-02-21T09:51:02;99337.25;;;9.18;65.09
16544;BME280;8384;47.996;7.786;2024-02-21T09:53:27;99337.59;;;9.45;64.63
16544;BME280;8384;47.996;7.786;2024-02-21T09:55:54;99319.91;;;9.89;63.28
16544;BME280;8384;47.996;7.786;2024-02-21T09:58:20;99319.53;;;10.26;60.43
16544;BME280;8384;47.996;7.786;2024-02-21T10:00:46;99315.72;;;10.56;59.36
16544;BME280;8384;47.996;7.786;2024-02-21T10:03:11;99311.97;;;10.79;59.20
16544;BME280;8384;47.996;7.786;2024-02-21T10:05:38;99304.03;;;10.78;59.63
16544;BME280;8384;47.996;7.786;2024-02-21T10:08:04;99294.31;;;11.04;59.27
16544;BME280;8384;47.996;7.786;2024-02-21T10:10:30;99289.81;;;11.15;58.57
16544;BME280;8384;47.996;7.786;2024-02-21T10:12:55;99284.00;;;11.29;58.52
16544;BME280;8384;47.996;7.786;2024-02-21T10:15:22;99292.16;;;11.46;57.45
16544;BME280;8384;47.996;7.786;2024-02-21T10:17:48;99294.41;;;10.75;57.48
16544;BME280;8384;47.996;7.786;2024-02-21T10:20:13;99285.22;;;10.82;57.16
16544;BME280;8384;47.996;7.786;2024-02-21T10:22:40;99249.34;;;10.78;56.83
16544;BME280;8384;47.996;7.786;2024-02-21T10:25:09;99285.47;;;10.63;57.40
16544;BME280;8384;47.996;7.786;2024-02-21T10:27:36;99261.97;;;10.62;56.93
16544;BME280;8384;47.996;7.786;2024-02-21T10:30:02;99279.09;;;10.74;59.59
16544;BME280;8384;47.996;7.786;2024-02-21T10:32:27;99249.66;;;10.30;59.45
16544;BME280;8384;47.996;7.786;2024-02-21T10:35:01;99256.03;;;10.36;58.92
16544;BME280;8384;47.996;7.786;2024-02-21T10:37:28;99254.44;;;10.23;59.88
16544;BME280;8384;47.996;7.786;2024-02-21T10:39:53;99257.09;;;9.89;60.98
16544;BME280;8384;47.996;7.786;2024-02-21T10:42:21;99253.94;;;10.09;62.72
16544;BME280;8384;47.996;7.786;2024-02-21T10:44:50;99248.84;;;10.81;62.41
16544;BME280;8384;47.996;7.786;2024-02-21T10:47:17;99243.06;;;11.39;59.36
16544;BME280;8384;47.996;7.786;2024-02-21T10:49:49;99233.84;;;11.23;59.62
16544;BME280;8384;47.996;7.786;2024-02-21T10:55:09;99225.53;;;10.95;63.50
16544;BME280;8384;47.996;7.786;2024-02-21T10:57:37;99230.06;;;11.29;58.58
16544;BME280;8384;47.996;7.786;2024-02-21T11:00:04;99209.22;;;11.23;60.30
16544;BME280;8384;47.996;7.786;2024-02-21T11:02:33;99187.56;;;11.21;59.98
16544;BME280;8384;47.996;7.786;2024-02-21T11:04:59;99177.13;;;10.40;65.43
16544;BME280;8384;47.996;7.786;2024-02-21T11:07:26;99193.63;;;10.62;65.56
16544;BME280;8384;47.996;7.786;2024-02-21T11:09:52;99204.53;;;10.62;66.13
16544;BME280;8384;47.996;7.786;2024-02-21T11:12:20;99198.09;;;10.68;66.15
16544;BME280;8384;47.996;7.786;2024-02-21T11:14:46;99178.25;;;11.00;65.32
16544;BME280;8384;47.996;7.786;2024-02-21T11:17:18;99192.97;;;11.16;61.73
16544;BME280;8384;47.996;7.786;2024-02-21T11:19:44;99183.69;;;10.95;61.27
16544;BME280;8384;47.996;7.786;2024-02-21T11:22:17;99182.41;;;10.63;63.71
16544;BME280;8384;47.996;7.786;2024-02-21T11:24:43;99177.63;;;10.54;61.66
16544;BME280;8384;47.996;7.786;2024-02-21T11:27:11;99129.69;;;10.46;62.67
16544;BME280;8384;47.996;7.786;2024-02-21T11:29:56;99157.53;;;11.04;61.85
16544;BME280;8384;47.996;7.786;2024-02-21T11:32:22;99150.34;;;11.20;61.46
16544;BME280;8384;47.996;7.786;2024-02-21T11:34:58;99114.41;;;10.89;60.13
16544;BME280;8384;47.996;7.786;2024-02-21T11:37:34;99131.31;;;11.58;61.65
16544;BME280;8384;47.996;7.786;2024-02-21T11:40:02;99130.59;;;11.68;61.38
16544;BME280;8384;47.996;7.786;2024-02-21T11:42:29;99126.41;;;11.33;61.97
16544;BME280;8384;47.996;7.786;2024-02-21T11:44:55;99118.75;;;11.62;60.04
16544;BME280;8384;47.996;7.786;2024-02-21T11:47:24;99087.25;;;11.32;59.39
16544;BME280;8384;47.996;7.786;2024-02-21T11:49:50;99107.84;;;11.40;60.18
16544;BME280;8384;47.996;7.786;2024-02-21T11:52:22;99111.75;;;11.72;57.59
16544;BME280;8384;47.996;7.786;2024-02-21T11:54:50;99113.38;;;12.00;58.08
16544;BME280;8384;47.996;7.786;2024-02-21T11:57:15;99066.66;;;11.84;58.01
16544;BME280;8384;47.996;7.786;2024-02-21T11:59:42;99094.28;;;12.10;58.38
16544;BME280;8384;47.996;7.786;2024-02-21T12:02:07;99067.44;;;12.12;55.18
16544;BME280;8384;47.996;7.786;2024-02-21T12:04:32;99066.34;;;12.62;54.93
16544;BME280;8384;47.996;7.786;2024-02-21T12:06:58;99079.69;;;12.48;45.57
16544;BME280;8384;47.996;7.786;2024-02-21T12:09:24;99076.47;;;12.56;42.28
16544;BME280;8384;47.996;7.786;2024-02-21T12:12:01;99065.56;;;12.18;42.82
16544;BME280;8384;47.996;7.786;2024-02-21T12:14:29;99064.97;;;12.59;41.09
16544;BME280;8384;47.996;7.786;2024-02-21T12:16:55;99030.09;;;12.01;40.21
16544;BME280;8384;47.996;7.786;2024-02-21T12:19:20;99057.91;;;12.20;42.69
16544;BME280;8384;47.996;7.786;2024-02-21T12:21:48;99050.53;;;12.26;39.83
16544;BME280;8384;47.996;7.786;2024-02-21T12:24:16;99014.16;;;11.98;38.95
16544;BME280;8384;47.996;7.786;2024-02-21T12:26:41;99041.81;;;12.34;40.27
16544;BME280;8384;47.996;7.786;2024-02-21T12:29:07;99031.88;;;12.18;39.16
16544;BME280;8384;47.996;7.786;2024-02-21T12:31:37;99017.28;;;12.12;39.43
16544;BME280;8384;47.996;7.786;2024-02-21T12:34:03;99009.28;;;12.00;38.86
16544;BME280;8384;47.996;7.786;2024-02-21T12:36:29;98999.25;;;12.21;40.20
16544;BME280;8384;47.996;7.786;2024-02-21T12:38:54;99005.09;;;12.35;39.86
16544;BME280;8384;47.996;7.786;2024-02-21T12:41:19;99004.09;;;12.57;38.67
16544;BME280;8384;47.996;7.786;2024-02-21T12:43:45;98973.47;;;12.17;39.55
16544;BME280;8384;47.996;7.786;2024-02-21T12:46:10;98989.69;;;12.29;39.35
16544;BME280;8384;47.996;7.786;2024-02-21T12:48:36;98941.34;;;12.02;39.31
16544;BME280;8384;47.996;7.786;2024-02-21T12:51:01;98974.88;;;12.25;38.32
16544;BME280;8384;47.996;7.786;2024-02-21T12:53:26;98973.91;;;12.52;38.50
16544;BME280;8384;47.996;7.786;2024-02-21T12:55:52;98942.84;;;12.36;38.45
16544;BME280;8384;47.996;7.786;2024-02-21T12:58:17;98959.84;;;12.27;38.75
16544;BME280;8384;47.996;7.786;2024-02-21T13:00:42;98952.06;;;12.09;39.37
16544;BME280;8384;47.996;7.786;2024-02-21T13:03:08;98947.84;;;12.49;39.25
16544;BME280;8384;47.996;7.786;2024-02-21T13:05:36;98924.44;;;12.21;38.84
16544;BME280;8384;47.996;7.786;2024-02-21T13:08:02;98926.94;;;12.27;39.10